Tropical Cyclones
[Index]
Main Index Home Page Stock Weather Photos Extreme Storms Discussion Storm News and Storm Chasing Reports Tropical Cyclones / Hurricanes / Typhoons Weather Data and Links Wild Fires / Bushfires Weather Observation Techniques Weather Picture Catalogue Tornado Pictures and Reports Stock Video Footage and DVDs for sale
Season 1972-1973 Tropical Cyclone DIANA Track Map
Season 1972-1973 Summaries: [BoM-AU] [JTWC-AU] [JTWC-SIO] [JTWC-SPAC] [JTWC-SH]
<<- Previous TC | JTWC 1972-1973 Season | Next TC ->>

click for intensity scale information  Lat/long Grid: Show Hide

 Date Labels: Show Hide

Joint Typhoon Warning Centre Cyclone Data

Name: DIANA
Number: 806 / 7304

06 Dec 1972 00:00 UTC to 18 Dec 1972 12:00 UTC

    date/time    lat    long     hPa   cat  kts
1972-12-06 00    6.0   165.9                              
1972-12-06 06    6.6   165.2                              
1972-12-06 12    7.2   164.7                              
1972-12-06 18    7.8   164.3                              
1972-12-07 00    8.4   164.2                              
1972-12-07 06    9.1   164.4                              
1972-12-07 12    9.7   164.8                              
1972-12-07 18   10.0   165.3                              
1972-12-08 00   10.2   165.8                              
1972-12-08 06   10.5   166.1                              
1972-12-08 12   10.9   166.3                              
1972-12-08 18   11.2   166.4                              
1972-12-09 00   11.6   166.4                              
1972-12-09 06   11.9   166.3                              
1972-12-09 12   12.3   166.1                              
1972-12-09 18   12.6   165.6                              
1972-12-10 00   13.0   165.0                              
1972-12-10 06   13.2   164.6                              
1972-12-10 12   13.3   164.2                              
1972-12-10 18   13.6   163.9                              
1972-12-11 00   14.0   163.7                              
1972-12-11 06   14.2   163.5                              
1972-12-11 12   14.5   163.4                              
1972-12-11 18   14.9   163.4                              
1972-12-12 00   15.3   163.4                              
1972-12-12 06   15.7   163.4                              
1972-12-12 12   16.2   163.5                              
1972-12-12 18   16.6   163.7                              
1972-12-13 00   16.8   164.0                              
1972-12-13 06   16.6   164.1                              
1972-12-13 12   16.3   164.2                              
1972-12-13 18   16.1   164.2                              
1972-12-14 00   16.0   164.1                              
1972-12-14 06   16.0   163.9                              
1972-12-14 12   16.1   163.7                              
1972-12-14 18   16.3   163.5                              
1972-12-15 00   16.9   163.2                              
1972-12-15 06   17.8   163.0                              
1972-12-15 12   19.0   162.8                              
1972-12-15 18   20.2   162.8                              
1972-12-16 00   21.5   163.0                              
1972-12-16 06   22.8   163.4                              
1972-12-16 12   24.1   163.8                              
1972-12-16 18   25.7   164.2                              
1972-12-17 00   27.5   164.6                              
1972-12-17 06   29.0   165.0                              
1972-12-17 12   30.3   166.1                              
1972-12-17 18   31.3   168.1                              
1972-12-18 00   32.0   170.1                              
1972-12-18 06   32.5   172.1                              
1972-12-18 12   32.8   174.0                              
Winds are 1-min average.

Tropical cyclone tracks developed by Michael Bath using data from the Joint Typhoon Warning Centre Best Tracks and Google Maps.


[Australian Severe Weather index] [Copyright Notice] [Email Contacts] [Search This Site] [Privacy Policy]
Document: tropical_cyclone_diana.htm Updated: 18 September 2016